SEGLH EPZG-EDFG
Flight info
| Callsign | SEGLH |
|---|---|
| Flight time | N/A |
| Altitude | 10500 |
| Route | DCT |
| Aircraft | K100/L-SBDGRY/S |
Departure
| Time | N/A |
|---|---|
| Airport | Zielona Góra-Babimost Airport (EPZG) |
Arrival
| Time | 2026-04-25 15:01 |
|---|---|
| Airport | Gelnhausen Airfield (EDFG) |
| Time | Latitude | Longitude | Altitude | Speed | Heading |
|---|---|---|---|---|---|
| 2026-04-25 13:36 | 51.84276 | 14.66005 | 8524 ft | 157 kts | 256° |
| 2026-04-25 13:36 | 51.83846 | 14.64390 | 8526 ft | 156 kts | 256° |
| 2026-04-25 13:37 | 51.83415 | 14.62778 | 8573 ft | 154 kts | 255° |
| 2026-04-25 13:37 | 51.82998 | 14.61224 | 8752 ft | 148 kts | 256° |
| 2026-04-25 13:37 | 51.82600 | 14.59724 | 8924 ft | 143 kts | 256° |
| 2026-04-25 13:37 | 51.82209 | 14.58270 | 9105 ft | 139 kts | 256° |
| 2026-04-25 13:38 | 51.81830 | 14.56848 | 9283 ft | 136 kts | 257° |
| 2026-04-25 13:38 | 51.81460 | 14.55462 | 9461 ft | 135 kts | 257° |
| 2026-04-25 13:38 | 51.81088 | 14.54070 | 9642 ft | 135 kts | 257° |
| 2026-04-25 13:38 | 51.80717 | 14.52692 | 9825 ft | 133 kts | 257° |
| 2026-04-25 13:39 | 51.80354 | 14.51329 | 10001 ft | 132 kts | 257° |
| 2026-04-25 13:39 | 51.79989 | 14.49961 | 10173 ft | 132 kts | 257° |
| 2026-04-25 13:39 | 51.79621 | 14.48591 | 10337 ft | 132 kts | 257° |
| 2026-04-25 13:39 | 51.79253 | 14.47218 | 10505 ft | 133 kts | 257° |
| 2026-04-25 13:40 | 51.78880 | 14.45816 | 10534 ft | 142 kts | 256° |
| 2026-04-25 13:40 | 51.78480 | 14.44322 | 10538 ft | 148 kts | 256° |
| 2026-04-25 13:40 | 51.78062 | 14.42770 | 10537 ft | 153 kts | 255° |
| 2026-04-25 13:40 | 51.77636 | 14.41193 | 10542 ft | 154 kts | 255° |
| 2026-04-25 13:41 | 51.77206 | 14.39601 | 10545 ft | 155 kts | 255° |
| 2026-04-25 13:41 | 51.76775 | 14.38007 | 10545 ft | 155 kts | 255° |
| 2026-04-25 13:41 | 51.76341 | 14.36402 | 10548 ft | 156 kts | 255° |
| 2026-04-25 13:41 | 51.75906 | 14.34793 | 10548 ft | 156 kts | 255° |
| 2026-04-25 13:42 | 51.75476 | 14.33201 | 10547 ft | 156 kts | 255° |
| 2026-04-25 13:42 | 51.75040 | 14.31585 | 10547 ft | 157 kts | 255° |
| 2026-04-25 13:42 | 51.74601 | 14.29968 | 10545 ft | 157 kts | 255° |
| 2026-04-25 13:42 | 51.74164 | 14.28355 | 10541 ft | 157 kts | 255° |
| 2026-04-25 13:43 | 51.73728 | 14.26743 | 10541 ft | 156 kts | 255° |
| 2026-04-25 13:43 | 51.73291 | 14.25134 | 10545 ft | 156 kts | 255° |
| 2026-04-25 13:43 | 51.72856 | 14.23528 | 10549 ft | 156 kts | 255° |
| 2026-04-25 13:43 | 51.72420 | 14.21921 | 10546 ft | 156 kts | 255° |
| 2026-04-25 13:44 | 51.71982 | 14.20312 | 10546 ft | 157 kts | 255° |
| 2026-04-25 13:44 | 51.71545 | 14.18704 | 10542 ft | 157 kts | 255° |
| 2026-04-25 13:44 | 51.71108 | 14.17096 | 10545 ft | 157 kts | 255° |
| 2026-04-25 13:44 | 51.70668 | 14.15483 | 10546 ft | 157 kts | 255° |
| 2026-04-25 13:45 | 51.70228 | 14.13864 | 10543 ft | 158 kts | 255° |
| 2026-04-25 13:45 | 51.69788 | 14.12246 | 10543 ft | 157 kts | 255° |
| 2026-04-25 13:45 | 51.69347 | 14.10627 | 10540 ft | 158 kts | 255° |
| 2026-04-25 13:45 | 51.68905 | 14.09005 | 10514 ft | 159 kts | 255° |
| 2026-04-25 13:46 | 51.68457 | 14.07373 | 10510 ft | 159 kts | 255° |
| 2026-04-25 13:46 | 51.68012 | 14.05749 | 10506 ft | 158 kts | 255° |
| 2026-04-25 13:46 | 51.67576 | 14.04150 | 10508 ft | 158 kts | 255° |
| 2026-04-25 13:46 | 51.67132 | 14.02532 | 10511 ft | 158 kts | 255° |
| 2026-04-25 13:47 | 51.66689 | 14.00915 | 10506 ft | 158 kts | 254° |
| 2026-04-25 13:47 | 51.66245 | 13.99297 | 10506 ft | 158 kts | 255° |
| 2026-04-25 13:47 | 51.65802 | 13.97677 | 10507 ft | 159 kts | 254° |
| 2026-04-25 13:47 | 51.65358 | 13.96056 | 10505 ft | 158 kts | 254° |
| 2026-04-25 13:48 | 51.64912 | 13.94434 | 10504 ft | 158 kts | 254° |
| 2026-04-25 13:48 | 51.64470 | 13.92827 | 10504 ft | 159 kts | 254° |
| 2026-04-25 13:48 | 51.64020 | 13.91191 | 10505 ft | 158 kts | 254° |
| 2026-04-25 13:48 | 51.63574 | 13.89574 | 10504 ft | 158 kts | 254° |
| 2026-04-25 13:49 | 51.63130 | 13.87962 | 10501 ft | 158 kts | 254° |
| 2026-04-25 13:49 | 51.62686 | 13.86347 | 10506 ft | 158 kts | 254° |
| 2026-04-25 13:49 | 51.62238 | 13.84728 | 10507 ft | 159 kts | 254° |
| 2026-04-25 13:49 | 51.61789 | 13.83108 | 10506 ft | 159 kts | 254° |
| 2026-04-25 13:50 | 51.61342 | 13.81481 | 10501 ft | 159 kts | 254° |
| 2026-04-25 13:50 | 51.60893 | 13.79852 | 10509 ft | 160 kts | 254° |
| 2026-04-25 13:50 | 51.60442 | 13.78223 | 10505 ft | 160 kts | 253° |
| 2026-04-25 13:50 | 51.59989 | 13.76597 | 10505 ft | 159 kts | 253° |
| 2026-04-25 13:51 | 51.59538 | 13.74972 | 10504 ft | 159 kts | 253° |
| 2026-04-25 13:51 | 51.59088 | 13.73347 | 10505 ft | 159 kts | 254° |
| 2026-04-25 13:51 | 51.58639 | 13.71724 | 10502 ft | 159 kts | 254° |
| 2026-04-25 13:51 | 51.58189 | 13.70099 | 10506 ft | 159 kts | 253° |
| 2026-04-25 13:52 | 51.57739 | 13.68476 | 10503 ft | 159 kts | 254° |
| 2026-04-25 13:52 | 51.57286 | 13.66848 | 10506 ft | 160 kts | 253° |
| 2026-04-25 13:52 | 51.56832 | 13.65223 | 10508 ft | 160 kts | 253° |
| 2026-04-25 13:52 | 51.56378 | 13.63588 | 10504 ft | 160 kts | 253° |
| 2026-04-25 13:53 | 51.55924 | 13.61960 | 10507 ft | 160 kts | 253° |
| 2026-04-25 13:53 | 51.55470 | 13.60326 | 10506 ft | 161 kts | 253° |
| 2026-04-25 13:53 | 51.55012 | 13.58687 | 10505 ft | 161 kts | 253° |
| 2026-04-25 13:53 | 51.54555 | 13.57051 | 10508 ft | 160 kts | 253° |
| 2026-04-25 13:54 | 51.54100 | 13.55425 | 10509 ft | 159 kts | 253° |
| 2026-04-25 13:54 | 51.53647 | 13.53804 | 10508 ft | 159 kts | 253° |
| 2026-04-25 13:54 | 51.53192 | 13.52173 | 10509 ft | 160 kts | 253° |
| 2026-04-25 13:54 | 51.52736 | 13.50542 | 10509 ft | 160 kts | 253° |
| 2026-04-25 13:55 | 51.52281 | 13.48918 | 10508 ft | 160 kts | 253° |
| 2026-04-25 13:55 | 51.51825 | 13.47290 | 10508 ft | 160 kts | 253° |
| 2026-04-25 13:55 | 51.51369 | 13.45665 | 10513 ft | 160 kts | 253° |
| 2026-04-25 13:55 | 51.50912 | 13.44033 | 10511 ft | 160 kts | 253° |
| 2026-04-25 13:56 | 51.50453 | 13.42404 | 10512 ft | 160 kts | 253° |
| 2026-04-25 13:56 | 51.49994 | 13.40774 | 10509 ft | 160 kts | 253° |
| 2026-04-25 13:56 | 51.49535 | 13.39140 | 10513 ft | 161 kts | 253° |
| 2026-04-25 13:56 | 51.49074 | 13.37497 | 10511 ft | 162 kts | 253° |
| 2026-04-25 13:57 | 51.48609 | 13.35854 | 10512 ft | 162 kts | 253° |
| 2026-04-25 13:57 | 51.48303 | 13.34764 | 10509 ft | 162 kts | 253° |
| 2026-04-25 13:57 | 51.47682 | 13.32558 | 10509 ft | 162 kts | 253° |
| 2026-04-25 13:57 | 51.47218 | 13.30918 | 10514 ft | 161 kts | 253° |
| 2026-04-25 13:58 | 51.46761 | 13.29300 | 10514 ft | 162 kts | 253° |
| 2026-04-25 13:58 | 51.46296 | 13.27660 | 10519 ft | 162 kts | 253° |
| 2026-04-25 13:58 | 51.45827 | 13.25991 | 10512 ft | 162 kts | 253° |
| 2026-04-25 13:58 | 51.45372 | 13.24386 | 10517 ft | 162 kts | 253° |
| 2026-04-25 13:59 | 51.44902 | 13.22731 | 10512 ft | 162 kts | 253° |
| 2026-04-25 13:59 | 51.44437 | 13.21085 | 10517 ft | 162 kts | 253° |
| 2026-04-25 13:59 | 51.43968 | 13.19434 | 10516 ft | 162 kts | 252° |
| 2026-04-25 13:59 | 51.43502 | 13.17794 | 10514 ft | 162 kts | 253° |
| 2026-04-25 14:00 | 51.43343 | 13.17234 | 10515 ft | 162 kts | 253° |
| 2026-04-25 14:00 | 51.42877 | 13.15596 | 10517 ft | 161 kts | 252° |
| 2026-04-25 14:00 | 51.42107 | 13.12887 | 10518 ft | 161 kts | 253° |
| 2026-04-25 14:00 | 51.41640 | 13.11243 | 10518 ft | 162 kts | 252° |
| 2026-04-25 14:01 | 51.41172 | 13.09600 | 10524 ft | 162 kts | 252° |
| 2026-04-25 14:01 | 51.40701 | 13.07952 | 10525 ft | 163 kts | 252° |
| 2026-04-25 14:01 | 51.40233 | 13.06308 | 10522 ft | 162 kts | 252° |
| 2026-04-25 14:01 | 51.39764 | 13.04663 | 10520 ft | 162 kts | 252° |
| 2026-04-25 14:02 | 51.39295 | 13.03021 | 10524 ft | 162 kts | 252° |
| 2026-04-25 14:02 | 51.38824 | 13.01378 | 10525 ft | 163 kts | 252° |
| 2026-04-25 14:02 | 51.38352 | 12.99729 | 10522 ft | 163 kts | 252° |
| 2026-04-25 14:02 | 51.38193 | 12.99173 | 10524 ft | 163 kts | 252° |
| 2026-04-25 14:03 | 51.37411 | 12.96440 | 10522 ft | 162 kts | 252° |
| 2026-04-25 14:03 | 51.36940 | 12.94798 | 10522 ft | 162 kts | 252° |
| 2026-04-25 14:03 | 51.36469 | 12.93154 | 10523 ft | 163 kts | 252° |
| 2026-04-25 14:03 | 51.35997 | 12.91510 | 10524 ft | 163 kts | 252° |
| 2026-04-25 14:04 | 51.35521 | 12.89853 | 10521 ft | 164 kts | 252° |
| 2026-04-25 14:04 | 51.35045 | 12.88201 | 10524 ft | 163 kts | 252° |
| 2026-04-25 14:04 | 51.34571 | 12.86553 | 10524 ft | 163 kts | 252° |
| 2026-04-25 14:04 | 51.34098 | 12.84907 | 10524 ft | 163 kts | 252° |
| 2026-04-25 14:05 | 51.33624 | 12.83256 | 10524 ft | 163 kts | 252° |
| 2026-04-25 14:05 | 51.33149 | 12.81612 | 10523 ft | 163 kts | 252° |
| 2026-04-25 14:05 | 51.32675 | 12.79968 | 10525 ft | 163 kts | 252° |
| 2026-04-25 14:05 | 51.32199 | 12.78318 | 10523 ft | 163 kts | 252° |
| 2026-04-25 14:06 | 51.31723 | 12.76673 | 10530 ft | 163 kts | 252° |
| 2026-04-25 14:06 | 51.31246 | 12.75022 | 10529 ft | 163 kts | 252° |
| 2026-04-25 14:06 | 51.30771 | 12.73373 | 10532 ft | 164 kts | 252° |
| 2026-04-25 14:06 | 51.30292 | 12.71718 | 10531 ft | 164 kts | 252° |
| 2026-04-25 14:07 | 51.29814 | 12.70069 | 10531 ft | 163 kts | 252° |
| 2026-04-25 14:07 | 51.29336 | 12.68424 | 10532 ft | 164 kts | 252° |
| 2026-04-25 14:07 | 51.28858 | 12.66775 | 10535 ft | 164 kts | 252° |
| 2026-04-25 14:07 | 51.28378 | 12.65122 | 10538 ft | 164 kts | 252° |
| 2026-04-25 14:08 | 51.27905 | 12.63494 | 10537 ft | 164 kts | 252° |
| 2026-04-25 14:08 | 51.27419 | 12.61818 | 10535 ft | 164 kts | 252° |
| 2026-04-25 14:08 | 51.26944 | 12.60190 | 10536 ft | 164 kts | 252° |
| 2026-04-25 14:08 | 51.26457 | 12.58519 | 10537 ft | 164 kts | 252° |
| 2026-04-25 14:09 | 51.25977 | 12.56867 | 10542 ft | 164 kts | 252° |
| 2026-04-25 14:09 | 51.25495 | 12.55208 | 10540 ft | 165 kts | 252° |
| 2026-04-25 14:09 | 51.25019 | 12.53572 | 10542 ft | 165 kts | 252° |
| 2026-04-25 14:09 | 51.24855 | 12.53011 | 10541 ft | 165 kts | 252° |
| 2026-04-25 14:10 | 51.24053 | 12.50267 | 10540 ft | 164 kts | 252° |
| 2026-04-25 14:10 | 51.23571 | 12.48619 | 10544 ft | 165 kts | 252° |
| 2026-04-25 14:10 | 51.23088 | 12.46961 | 10540 ft | 165 kts | 252° |
| 2026-04-25 14:10 | 51.22603 | 12.45301 | 10544 ft | 165 kts | 252° |
| 2026-04-25 14:11 | 51.22113 | 12.43639 | 10540 ft | 165 kts | 252° |
| 2026-04-25 14:11 | 51.21627 | 12.41981 | 10539 ft | 164 kts | 252° |
| 2026-04-25 14:11 | 51.21145 | 12.40334 | 10541 ft | 164 kts | 252° |
| 2026-04-25 14:11 | 51.20663 | 12.38689 | 10540 ft | 164 kts | 252° |
| 2026-04-25 14:12 | 51.20180 | 12.37043 | 10542 ft | 164 kts | 252° |
| 2026-04-25 14:12 | 51.19694 | 12.35393 | 10541 ft | 165 kts | 251° |
| 2026-04-25 14:12 | 51.19206 | 12.33735 | 10542 ft | 165 kts | 252° |
| 2026-04-25 14:12 | 51.18719 | 12.32083 | 10544 ft | 164 kts | 251° |
| 2026-04-25 14:13 | 51.18235 | 12.30439 | 10552 ft | 164 kts | 251° |
| 2026-04-25 14:13 | 51.17750 | 12.28786 | 10546 ft | 165 kts | 251° |
| 2026-04-25 14:13 | 51.17262 | 12.27133 | 10552 ft | 165 kts | 251° |
| 2026-04-25 14:13 | 51.16772 | 12.25477 | 10549 ft | 165 kts | 251° |
| 2026-04-25 14:14 | 51.16283 | 12.23821 | 10550 ft | 165 kts | 251° |
| 2026-04-25 14:14 | 51.15795 | 12.22169 | 10551 ft | 164 kts | 251° |
| 2026-04-25 14:14 | 51.15306 | 12.20514 | 10543 ft | 165 kts | 251° |
| 2026-04-25 14:14 | 51.14817 | 12.18860 | 10542 ft | 165 kts | 251° |
| 2026-04-25 14:15 | 51.14494 | 12.17768 | 10546 ft | 165 kts | 251° |
| 2026-04-25 14:15 | 51.14164 | 12.16651 | 10543 ft | 165 kts | 251° |
| 2026-04-25 14:15 | 51.13515 | 12.14465 | 10542 ft | 165 kts | 251° |
| 2026-04-25 14:15 | 51.13027 | 12.12823 | 10541 ft | 164 kts | 251° |
| 2026-04-25 14:16 | 51.12540 | 12.11179 | 10543 ft | 164 kts | 251° |
| 2026-04-25 14:16 | 51.12051 | 12.09535 | 10542 ft | 165 kts | 251° |
| 2026-04-25 14:16 | 51.11560 | 12.07882 | 10545 ft | 165 kts | 251° |
| 2026-04-25 14:16 | 51.11068 | 12.06226 | 10548 ft | 166 kts | 251° |
| 2026-04-25 14:17 | 51.10576 | 12.04568 | 10550 ft | 165 kts | 251° |
| 2026-04-25 14:17 | 51.10081 | 12.02919 | 10552 ft | 165 kts | 251° |
| 2026-04-25 14:17 | 51.09588 | 12.01259 | 10546 ft | 167 kts | 251° |
| 2026-04-25 14:17 | 51.09093 | 11.99597 | 10550 ft | 167 kts | 251° |
| 2026-04-25 14:18 | 51.08597 | 11.97934 | 10545 ft | 166 kts | 251° |
| 2026-04-25 14:18 | 51.08101 | 11.96277 | 10544 ft | 166 kts | 251° |
| 2026-04-25 14:18 | 51.07605 | 11.94617 | 10549 ft | 166 kts | 251° |
| 2026-04-25 14:18 | 51.07108 | 11.92954 | 10542 ft | 167 kts | 251° |
| 2026-04-25 14:19 | 51.06608 | 11.91287 | 10544 ft | 167 kts | 251° |
| 2026-04-25 14:19 | 51.06109 | 11.89618 | 10546 ft | 167 kts | 251° |
| 2026-04-25 14:19 | 51.05608 | 11.87948 | 10547 ft | 167 kts | 251° |
| 2026-04-25 14:19 | 51.05108 | 11.86283 | 10549 ft | 168 kts | 251° |
| 2026-04-25 14:20 | 51.04608 | 11.84618 | 10546 ft | 166 kts | 251° |
| 2026-04-25 14:20 | 51.04278 | 11.83519 | 10544 ft | 166 kts | 251° |
| 2026-04-25 14:20 | 51.03612 | 11.81299 | 10543 ft | 167 kts | 251° |
| 2026-04-25 14:20 | 51.03112 | 11.79635 | 10549 ft | 167 kts | 251° |
| 2026-04-25 14:21 | 51.02610 | 11.77968 | 10550 ft | 167 kts | 251° |
| 2026-04-25 14:21 | 51.02109 | 11.76298 | 10551 ft | 168 kts | 251° |
| 2026-04-25 14:21 | 51.01605 | 11.74625 | 10552 ft | 168 kts | 250° |
| 2026-04-25 14:21 | 51.01099 | 11.72956 | 10551 ft | 168 kts | 250° |
| 2026-04-25 14:22 | 51.00594 | 11.71283 | 10550 ft | 168 kts | 251° |
| 2026-04-25 14:22 | 51.00091 | 11.69619 | 10550 ft | 168 kts | 250° |
| 2026-04-25 14:22 | 50.99576 | 11.67950 | 10553 ft | 169 kts | 250° |
| 2026-04-25 14:22 | 50.99053 | 11.66282 | 10549 ft | 169 kts | 250° |
| 2026-04-25 14:23 | 50.98529 | 11.64620 | 10555 ft | 168 kts | 249° |
| 2026-04-25 14:23 | 50.98006 | 11.62963 | 10554 ft | 168 kts | 250° |
| 2026-04-25 14:23 | 50.97487 | 11.61308 | 10552 ft | 167 kts | 249° |
| 2026-04-25 14:23 | 50.96965 | 11.59652 | 10556 ft | 168 kts | 249° |
| 2026-04-25 14:24 | 50.96441 | 11.57995 | 10553 ft | 168 kts | 249° |
| 2026-04-25 14:24 | 50.95918 | 11.56335 | 10559 ft | 169 kts | 250° |
| 2026-04-25 14:24 | 50.95393 | 11.54671 | 10556 ft | 168 kts | 249° |
| 2026-04-25 14:24 | 50.94882 | 11.53055 | 10552 ft | 168 kts | 249° |
| 2026-04-25 14:25 | 50.94359 | 11.51405 | 10555 ft | 168 kts | 249° |
| 2026-04-25 14:25 | 50.93840 | 11.49772 | 10560 ft | 168 kts | 249° |
| 2026-04-25 14:25 | 50.93318 | 11.48109 | 10561 ft | 169 kts | 249° |
| 2026-04-25 14:25 | 50.92960 | 11.46984 | 10558 ft | 169 kts | 249° |
| 2026-04-25 14:26 | 50.92259 | 11.44781 | 10563 ft | 169 kts | 249° |
| 2026-04-25 14:26 | 50.91728 | 11.43113 | 10565 ft | 170 kts | 249° |
| 2026-04-25 14:26 | 50.91197 | 11.41441 | 10568 ft | 170 kts | 249° |
| 2026-04-25 14:26 | 50.90668 | 11.39773 | 10567 ft | 170 kts | 249° |
| 2026-04-25 14:27 | 50.90138 | 11.38095 | 10570 ft | 170 kts | 249° |
| 2026-04-25 14:27 | 50.89603 | 11.36414 | 10568 ft | 172 kts | 249° |
| 2026-04-25 14:27 | 50.89065 | 11.34735 | 10567 ft | 170 kts | 249° |
| 2026-04-25 14:27 | 50.88530 | 11.33059 | 10569 ft | 170 kts | 249° |
| 2026-04-25 14:28 | 50.87998 | 11.31390 | 10567 ft | 170 kts | 249° |
| 2026-04-25 14:28 | 50.87468 | 11.29728 | 10571 ft | 169 kts | 249° |
| 2026-04-25 14:28 | 50.86940 | 11.28075 | 10569 ft | 168 kts | 249° |
| 2026-04-25 14:28 | 50.86412 | 11.26421 | 10568 ft | 169 kts | 249° |
| 2026-04-25 14:29 | 50.85882 | 11.24761 | 10573 ft | 170 kts | 249° |
| 2026-04-25 14:29 | 50.85348 | 11.23088 | 10576 ft | 171 kts | 249° |
| 2026-04-25 14:29 | 50.84812 | 11.21417 | 10569 ft | 170 kts | 249° |
| 2026-04-25 14:29 | 50.84277 | 11.19751 | 10571 ft | 170 kts | 249° |
| 2026-04-25 14:30 | 50.83743 | 11.18083 | 10571 ft | 170 kts | 249° |
| 2026-04-25 14:30 | 50.82672 | 11.14748 | 10572 ft | 170 kts | 249° |
| 2026-04-25 14:30 | 50.82135 | 11.13078 | 10574 ft | 170 kts | 249° |
| 2026-04-25 14:31 | 50.81602 | 11.11419 | 10574 ft | 169 kts | 249° |
| 2026-04-25 14:31 | 50.81068 | 11.09754 | 10572 ft | 170 kts | 249° |
| 2026-04-25 14:31 | 50.80532 | 11.08094 | 10575 ft | 169 kts | 248° |
| 2026-04-25 14:31 | 50.79993 | 11.06430 | 10574 ft | 170 kts | 249° |
| 2026-04-25 14:32 | 50.79458 | 11.04758 | 10575 ft | 171 kts | 249° |
| 2026-04-25 14:32 | 50.78918 | 11.03087 | 10573 ft | 170 kts | 248° |
| 2026-04-25 14:32 | 50.78379 | 11.01423 | 10571 ft | 170 kts | 249° |
| 2026-04-25 14:32 | 50.77842 | 10.99759 | 10571 ft | 170 kts | 249° |
| 2026-04-25 14:33 | 50.77313 | 10.98117 | 10580 ft | 168 kts | 249° |
| 2026-04-25 14:33 | 50.76777 | 10.96456 | 10581 ft | 169 kts | 248° |
| 2026-04-25 14:33 | 50.76239 | 10.94799 | 10581 ft | 170 kts | 248° |
| 2026-04-25 14:33 | 50.75703 | 10.93139 | 10577 ft | 169 kts | 248° |
| 2026-04-25 14:34 | 50.75166 | 10.91488 | 10576 ft | 169 kts | 249° |
| 2026-04-25 14:34 | 50.74631 | 10.89840 | 10577 ft | 171 kts | 248° |
| 2026-04-25 14:34 | 50.74086 | 10.88164 | 10575 ft | 171 kts | 248° |
| 2026-04-25 14:34 | 50.73547 | 10.86499 | 10577 ft | 170 kts | 248° |
| 2026-04-25 14:35 | 50.73006 | 10.84835 | 10581 ft | 171 kts | 249° |
| 2026-04-25 14:35 | 50.72463 | 10.83159 | 10579 ft | 172 kts | 249° |
| 2026-04-25 14:35 | 50.71917 | 10.81480 | 10575 ft | 171 kts | 248° |
| 2026-04-25 14:35 | 50.71372 | 10.79818 | 10578 ft | 170 kts | 248° |
| 2026-04-25 14:36 | 50.70830 | 10.78153 | 10574 ft | 171 kts | 248° |
| 2026-04-25 14:36 | 50.70289 | 10.76486 | 10572 ft | 170 kts | 248° |
| 2026-04-25 14:36 | 50.69751 | 10.74838 | 10576 ft | 168 kts | 248° |
| 2026-04-25 14:36 | 50.69214 | 10.73194 | 10576 ft | 169 kts | 248° |
| 2026-04-25 14:37 | 50.68684 | 10.71573 | 10578 ft | 169 kts | 248° |
| 2026-04-25 14:37 | 50.68143 | 10.69917 | 10576 ft | 170 kts | 248° |
| 2026-04-25 14:37 | 50.67603 | 10.68266 | 10574 ft | 169 kts | 248° |
| 2026-04-25 14:37 | 50.67063 | 10.66616 | 10581 ft | 170 kts | 248° |
| 2026-04-25 14:38 | 50.66520 | 10.64957 | 10581 ft | 170 kts | 248° |
| 2026-04-25 14:38 | 50.65976 | 10.63300 | 10576 ft | 169 kts | 247° |
| 2026-04-25 14:38 | 50.65435 | 10.61655 | 10580 ft | 169 kts | 248° |
| 2026-04-25 14:38 | 50.64894 | 10.59998 | 10581 ft | 171 kts | 248° |
| 2026-04-25 14:39 | 50.64346 | 10.58329 | 10577 ft | 171 kts | 248° |
| 2026-04-25 14:39 | 50.63797 | 10.56666 | 10575 ft | 172 kts | 248° |
| 2026-04-25 14:39 | 50.63248 | 10.54998 | 10582 ft | 171 kts | 248° |
| 2026-04-25 14:39 | 50.62700 | 10.53332 | 10584 ft | 171 kts | 248° |
| 2026-04-25 14:40 | 50.62152 | 10.51666 | 10577 ft | 171 kts | 248° |
| 2026-04-25 14:40 | 50.61605 | 10.50010 | 10577 ft | 171 kts | 248° |
| 2026-04-25 14:40 | 50.61059 | 10.48352 | 10576 ft | 170 kts | 248° |
| 2026-04-25 14:40 | 50.60511 | 10.46693 | 10582 ft | 171 kts | 247° |
| 2026-04-25 14:41 | 50.59960 | 10.45023 | 10581 ft | 172 kts | 248° |
| 2026-04-25 14:41 | 50.59410 | 10.43353 | 10579 ft | 172 kts | 248° |
| 2026-04-25 14:41 | 50.58858 | 10.41688 | 10583 ft | 172 kts | 248° |
| 2026-04-25 14:41 | 50.58305 | 10.40017 | 10580 ft | 172 kts | 248° |
| 2026-04-25 14:42 | 50.57754 | 10.38353 | 10583 ft | 171 kts | 247° |
| 2026-04-25 14:42 | 50.57391 | 10.37258 | 10584 ft | 171 kts | 247° |
| 2026-04-25 14:42 | 50.56656 | 10.35044 | 10584 ft | 171 kts | 248° |
| 2026-04-25 14:42 | 50.56105 | 10.33381 | 10585 ft | 172 kts | 247° |
| 2026-04-25 14:43 | 50.55553 | 10.31712 | 10583 ft | 173 kts | 247° |
| 2026-04-25 14:43 | 50.54996 | 10.30036 | 10582 ft | 173 kts | 247° |
| 2026-04-25 14:43 | 50.54438 | 10.28360 | 10581 ft | 173 kts | 247° |
| 2026-04-25 14:43 | 50.53884 | 10.26691 | 10580 ft | 172 kts | 247° |
| 2026-04-25 14:44 | 50.53327 | 10.25016 | 10582 ft | 172 kts | 247° |
| 2026-04-25 14:44 | 50.52771 | 10.23355 | 10582 ft | 171 kts | 247° |
| 2026-04-25 14:44 | 50.52217 | 10.21699 | 10586 ft | 171 kts | 247° |
| 2026-04-25 14:44 | 50.51664 | 10.20034 | 10583 ft | 172 kts | 247° |
| 2026-04-25 14:45 | 50.51297 | 10.18932 | 10581 ft | 172 kts | 247° |
| 2026-04-25 14:45 | 50.50555 | 10.16709 | 10588 ft | 172 kts | 247° |
| 2026-04-25 14:45 | 50.49999 | 10.15041 | 10585 ft | 172 kts | 247° |
| 2026-04-25 14:45 | 50.49442 | 10.13380 | 10584 ft | 171 kts | 247° |
| 2026-04-25 14:46 | 50.48887 | 10.11721 | 10584 ft | 172 kts | 247° |
| 2026-04-25 14:46 | 50.48328 | 10.10053 | 10582 ft | 172 kts | 247° |
| 2026-04-25 14:46 | 50.47771 | 10.08392 | 10583 ft | 171 kts | 247° |
| 2026-04-25 14:46 | 50.47223 | 10.06755 | 10586 ft | 172 kts | 247° |
| 2026-04-25 14:47 | 50.46664 | 10.05089 | 10589 ft | 173 kts | 247° |
| 2026-04-25 14:47 | 50.46475 | 10.04527 | 10584 ft | 173 kts | 247° |
| 2026-04-25 14:47 | 50.45549 | 10.01765 | 10586 ft | 172 kts | 247° |
| 2026-04-25 14:47 | 50.44989 | 10.00101 | 10581 ft | 172 kts | 247° |
| 2026-04-25 14:48 | 50.44431 | 9.98445 | 10586 ft | 172 kts | 247° |
| 2026-04-25 14:48 | 50.43873 | 9.96789 | 10594 ft | 171 kts | 247° |
| 2026-04-25 14:48 | 50.43310 | 9.95112 | 10587 ft | 174 kts | 247° |
| 2026-04-25 14:48 | 50.42744 | 9.93435 | 10599 ft | 174 kts | 247° |
| 2026-04-25 14:49 | 50.42178 | 9.91758 | 10591 ft | 174 kts | 247° |
| 2026-04-25 14:49 | 50.41605 | 9.90053 | 10424 ft | 181 kts | 247° |
| 2026-04-25 14:49 | 50.41007 | 9.88279 | 10188 ft | 187 kts | 247° |
| 2026-04-25 14:49 | 50.40397 | 9.86471 | 9929 ft | 187 kts | 246° |
| 2026-04-25 14:50 | 50.39781 | 9.84665 | 9673 ft | 188 kts | 246° |
| 2026-04-25 14:50 | 50.39174 | 9.82860 | 9427 ft | 185 kts | 246° |
| 2026-04-25 14:50 | 50.38586 | 9.81146 | 9183 ft | 173 kts | 246° |
| 2026-04-25 14:50 | 50.38025 | 9.79483 | 8869 ft | 171 kts | 247° |
| 2026-04-25 14:51 | 50.37475 | 9.77850 | 8631 ft | 168 kts | 247° |
| 2026-04-25 14:51 | 50.36931 | 9.76244 | 8416 ft | 167 kts | 247° |
| 2026-04-25 14:51 | 50.36387 | 9.74656 | 8198 ft | 164 kts | 246° |
| 2026-04-25 14:51 | 50.35852 | 9.73088 | 7983 ft | 163 kts | 247° |
| 2026-04-25 14:52 | 50.35319 | 9.71512 | 7770 ft | 164 kts | 247° |
| 2026-04-25 14:52 | 50.34784 | 9.69938 | 7552 ft | 163 kts | 247° |
| 2026-04-25 14:52 | 50.34254 | 9.68382 | 7345 ft | 162 kts | 247° |
| 2026-04-25 14:52 | 50.34082 | 9.67877 | 7270 ft | 162 kts | 248° |
| 2026-04-25 14:53 | 50.33190 | 9.65253 | 6904 ft | 164 kts | 247° |
| 2026-04-25 14:53 | 50.32655 | 9.63688 | 6695 ft | 163 kts | 247° |
| 2026-04-25 14:53 | 50.32118 | 9.62117 | 6477 ft | 164 kts | 247° |
| 2026-04-25 14:53 | 50.31584 | 9.60537 | 6249 ft | 164 kts | 246° |
| 2026-04-25 14:54 | 50.31050 | 9.58986 | 6032 ft | 164 kts | 246° |
| 2026-04-25 14:54 | 50.30504 | 9.57408 | 5817 ft | 165 kts | 246° |
| 2026-04-25 14:54 | 50.29971 | 9.55826 | 5597 ft | 163 kts | 246° |
| 2026-04-25 14:54 | 50.29429 | 9.54242 | 5371 ft | 169 kts | 245° |
| 2026-04-25 14:55 | 50.28879 | 9.52629 | 5158 ft | 167 kts | 246° |
| 2026-04-25 14:55 | 50.28333 | 9.51050 | 4934 ft | 163 kts | 246° |
| 2026-04-25 14:55 | 50.27798 | 9.49494 | 4713 ft | 161 kts | 245° |
| 2026-04-25 14:55 | 50.27277 | 9.47958 | 4503 ft | 160 kts | 245° |
| 2026-04-25 14:56 | 50.26750 | 9.46429 | 4292 ft | 160 kts | 244° |
| 2026-04-25 14:56 | 50.26216 | 9.44893 | 4095 ft | 163 kts | 245° |
| 2026-04-25 14:56 | 50.25679 | 9.43326 | 3859 ft | 163 kts | 245° |
| 2026-04-25 14:56 | 50.25146 | 9.41779 | 3652 ft | 161 kts | 245° |
| 2026-04-25 14:57 | 50.24614 | 9.40227 | 3437 ft | 162 kts | 245° |
| 2026-04-25 14:57 | 50.24085 | 9.38687 | 3220 ft | 161 kts | 246° |
| 2026-04-25 14:57 | 50.23553 | 9.37148 | 3003 ft | 160 kts | 246° |
| 2026-04-25 14:57 | 50.23035 | 9.35645 | 2854 ft | 156 kts | 244° |
| 2026-04-25 14:58 | 50.22497 | 9.34070 | 2562 ft | 166 kts | 245° |
| 2026-04-25 14:58 | 50.21951 | 9.32500 | 2366 ft | 162 kts | 245° |
| 2026-04-25 14:58 | 50.21412 | 9.30958 | 2141 ft | 160 kts | 244° |
| 2026-04-25 14:58 | 50.21019 | 9.29353 | 1932 ft | 157 kts | 264° |
| 2026-04-25 14:59 | 50.20863 | 9.27691 | 1721 ft | 147 kts | 263° |
| 2026-04-25 14:59 | 50.20703 | 9.26267 | 1535 ft | 117 kts | 263° |
| 2026-04-25 14:59 | 50.20561 | 9.25070 | 1412 ft | 120 kts | 264° |
| 2026-04-25 14:59 | 50.20418 | 9.23700 | 1266 ft | 134 kts | 264° |
| 2026-04-25 15:00 | 50.20319 | 9.22839 | 1257 ft | 106 kts | 264° |
| 2026-04-25 15:00 | 50.20151 | 9.21365 | 1250 ft | 91 kts | 266° |
| 2026-04-25 15:00 | 50.20035 | 9.20373 | 1118 ft | 97 kts | 264° |
| 2026-04-25 15:00 | 50.19908 | 9.19376 | 853 ft | 84 kts | 262° |
| 2026-04-25 15:01 | 50.19818 | 9.18541 | 677 ft | 79 kts | 265° |
| 2026-04-25 15:01 | 50.19761 | 9.17952 | 555 ft | 86 kts | 268° |
| 2026-04-25 15:01 | 50.19672 | 9.17085 | 425 ft | 67 kts | 266° |
| 2026-04-25 15:01 | 50.19616 | 9.16512 | 422 ft | 38 kts | 261° |
| 2026-04-25 15:02 | 50.19595 | 9.16219 | 422 ft | 14 kts | 308° |
| 2026-04-25 15:02 | 50.19600 | 9.16258 | 419 ft | 24 kts | 81° |
| 2026-04-25 15:02 | 50.19644 | 9.16623 | 419 ft | 40 kts | 78° |
| 2026-04-25 15:02 | 50.19686 | 9.17067 | 419 ft | 42 kts | 82° |
| 2026-04-25 15:03 | 50.19750 | 9.17385 | 425 ft | 20 kts | 27° |
| 2026-04-25 15:03 | 50.19770 | 9.17399 | 425 ft | 0 kts | 22° |